Time;durP1;ratioP1;P1;durP2;ratioP2;P2;SDS_P1;SDS_P2;PMS_P1;PMS_P2;Temp;Humidity;BMP_temperature;BMP_pressure;BME280_temperature;BME280_humidity;BME280_pressure;Samples;Min_cycle;Max_cycle;Signal;HPM_P1;HPM_P2
2023/01/14 00:02:20;;;;;;;9.80;5.50;;;;;;;6.56;85.09;100149.45;108538;1276;38431;-75
2023/01/14 00:04:52;;;;;;;8.30;5.60;;;;;;;6.54;84.91;100149.14;108510;1258;36045;-74
2023/01/14 00:07:27;;;;;;;8.80;5.30;;;;;;;6.51;84.77;100147.14;108348;1259;36791;-74
2023/01/14 00:09:58;;;;;;;9.10;5.90;;;;;;;6.50;84.84;100152.55;108497;1277;36216;-73
2023/01/14 00:12:29;;;;;;;9.10;5.80;;;;;;;6.48;84.80;100155.88;108420;1261;36870;-73
2023/01/14 00:15:01;;;;;;;9.10;5.40;;;;;;;6.47;84.97;100155.56;108471;1277;37113;-74
2023/01/14 00:17:32;;;;;;;9.10;5.80;;;;;;;6.46;84.96;100154.38;108232;1257;36254;-74
2023/01/14 00:20:10;;;;;;;7.40;5.10;;;;;;;6.47;84.80;100158.68;108529;1278;37322;-74
2023/01/14 00:22:45;;;;;;;8.90;5.00;;;;;;;6.47;84.77;100155.54;108307;1265;38023;-76
2023/01/14 00:25:17;;;;;;;9.90;5.80;;;;;;;6.48;84.81;100156.23;108463;1255;37088;-74
2023/01/14 00:27:47;;;;;;;8.30;5.30;;;;;;;6.49;84.88;100162.27;108510;1258;37316;-75
2023/01/14 00:30:22;;;;;;;11.00;5.80;;;;;;;6.47;84.64;100170.09;108461;1267;37294;-74
2023/01/14 00:32:54;;;;;;;11.60;5.70;;;;;;;6.47;84.54;100174.09;108507;1271;37129;-74
2023/01/14 00:35:25;;;;;;;8.40;6.10;;;;;;;6.48;84.51;100177.70;108532;1269;37414;-74
2023/01/14 00:37:57;;;;;;;9.00;5.80;;;;;;;6.47;84.45;100172.36;108542;1277;37385;-75
2023/01/14 00:40:28;;;;;;;9.00;6.00;;;;;;;6.47;84.37;100173.58;108462;1256;36005;-73
2023/01/14 00:42:59;;;;;;;11.10;5.90;;;;;;;6.45;84.30;100175.69;107819;1255;907773;-74
2023/01/14 00:45:30;;;;;;;8.70;5.50;;;;;;;6.44;84.24;100182.48;108533;1255;37333;-74
2023/01/14 00:48:02;;;;;;;10.90;5.80;;;;;;;6.43;84.27;100183.71;108441;1258;37082;-74
2023/01/14 00:50:34;;;;;;;10.10;5.40;;;;;;;6.43;84.10;100189.96;108503;1277;37270;-74
2023/01/14 00:53:05;;;;;;;8.20;5.40;;;;;;;6.40;83.99;100196.09;108511;1258;37116;-75
2023/01/14 00:55:40;;;;;;;10.80;5.20;;;;;;;6.40;84.10;100203.02;108449;1260;37026;-71
2023/01/14 00:58:11;;;;;;;10.10;5.70;;;;;;;6.40;84.06;100206.67;108494;1277;38668;-74
2023/01/14 01:00:44;;;;;;;9.40;5.30;;;;;;;6.39;83.96;100205.65;108389;1261;37935;-74
2023/01/14 01:03:16;;;;;;;10.20;6.00;;;;;;;6.39;83.79;100207.03;108498;1277;37586;-74
2023/01/14 01:05:49;;;;;;;9.30;5.40;;;;;;;6.38;83.82;100208.96;108531;1261;37149;-74
2023/01/14 01:08:28;;;;;;;7.70;4.90;;;;;;;6.37;83.83;100212.28;108351;1261;38426;-73
2023/01/14 01:11:01;;;;;;;;;;;;;;;6.35;83.64;100214.92;108512;1258;37095;-74
2023/01/14 01:13:34;;;;;;;9.20;5.50;;;;;;;6.29;83.64;100215.41;108474;1270;37259;-74
2023/01/14 01:16:10;;;;;;;8.30;5.10;;;;;;;6.29;83.72;100219.56;108486;1277;37031;-74
2023/01/14 01:18:42;;;;;;;10.30;5.60;;;;;;;6.28;83.80;100216.48;108436;1258;38539;-74
2023/01/14 01:21:14;;;;;;;8.80;5.30;;;;;;;6.28;83.73;100218.02;108459;1277;37101;-72
2023/01/14 01:23:49;;;;;;;11.60;5.50;;;;;;;6.26;83.58;100219.80;108484;1258;37253;-72
2023/01/14 01:26:22;;;;;;;9.20;5.10;;;;;;;6.25;83.46;100213.60;108529;1255;36057;-75
2023/01/14 01:29:00;;;;;;;8.80;5.40;;;;;;;6.24;83.48;100215.36;108545;1277;36644;-71
2023/01/14 01:31:30;;;;;;;9.60;5.60;;;;;;;6.23;83.49;100214.51;108516;1267;37060;-73
2023/01/14 01:34:02;;;;;;;11.60;5.60;;;;;;;6.24;83.49;100215.02;108466;1258;38589;-73
2023/01/14 01:36:33;;;;;;;7.50;4.90;;;;;;;6.23;83.37;100209.83;108519;1277;37591;-74
2023/01/14 01:39:06;;;;;;;8.80;5.40;;;;;;;6.21;83.45;100208.48;108460;1255;37199;-75
2023/01/14 01:41:37;;;;;;;7.90;5.00;;;;;;;6.20;83.26;100215.61;108502;1258;38308;-73
2023/01/14 01:44:29;;;;;;;10.20;5.50;;;;;;;6.22;83.55;100219.73;108490;1277;38340;-74
2023/01/14 01:47:00;;;;;;;7.90;5.00;;;;;;;6.20;83.12;100218.90;108491;1277;37148;-74
2023/01/14 01:49:33;;;;;;;9.70;5.50;;;;;;;6.19;83.27;100215.98;108505;1270;37350;-74
2023/01/14 01:52:07;;;;;;;7.80;5.60;;;;;;;6.18;83.22;100217.20;108353;1255;174600;-71
2023/01/14 01:54:40;;;;;;;8.10;4.70;;;;;;;6.18;83.00;100221.90;108530;1258;37224;-74
2023/01/14 01:57:12;;;;;;;8.30;5.20;;;;;;;6.19;83.08;100223.41;108453;1258;37306;-74
2023/01/14 01:59:46;;;;;;;7.80;4.60;;;;;;;6.22;83.14;100225.80;108501;1267;37243;-72
2023/01/14 02:02:17;;;;;;;9.80;6.10;;;;;;;6.24;82.98;100224.52;108498;1258;37320;-72
2023/01/14 02:04:48;;;;;;;7.40;5.10;;;;;;;6.27;82.89;100222.06;108306;1269;37086;-72
2023/01/14 02:07:21;;;;;;;8.80;5.10;;;;;;;6.29;82.90;100224.59;108529;1254;37793;-74
2023/01/14 02:09:54;;;;;;;9.80;5.40;;;;;;;6.32;82.84;100226.27;108690;1276;36500;-74
2023/01/14 02:12:39;;;;;;;10.10;5.20;;;;;;;6.34;82.58;100229.14;108696;1258;36272;-74
2023/01/14 02:15:24;;;;;;;8.70;6.00;;;;;;;6.34;82.62;100226.05;108695;1261;37170;-74
2023/01/14 02:18:06;;;;;;;9.50;5.80;;;;;;;6.30;82.38;100227.68;108690;1254;37254;-73
2023/01/14 02:20:42;;;;;;;7.80;4.90;;;;;;;6.26;82.25;100229.69;108371;1259;174886;-73
2023/01/14 02:24:28;;;;;;;9.50;5.60;;;;;;;6.25;82.28;100229.36;108728;1265;36220;-72
2023/01/14 02:27:28;;;;;;;9.00;5.70;;;;;;;6.21;82.25;100236.55;108174;1276;37113;-74
2023/01/14 02:30:31;;;;;;;8.50;5.60;;;;;;;6.17;82.27;100240.27;108605;1254;36042;-74
2023/01/14 02:33:13;;;;;;;7.60;5.00;;;;;;;6.10;82.13;100242.34;108661;1254;36258;-74
2023/01/14 02:35:47;;;;;;;8.60;5.20;;;;;;;6.04;82.17;100244.54;108396;1272;37015;-74
2023/01/14 02:38:30;;;;;;;7.30;4.90;;;;;;;6.01;82.16;100248.43;108511;1259;38381;-73
2023/01/14 02:41:08;;;;;;;8.90;5.40;;;;;;;5.98;82.23;100251.42;108573;1264;37201;-74
2023/01/14 02:46:35;;;;;;;7.70;4.80;;;;;;;5.91;82.50;100260.38;108655;1259;36240;-75
2023/01/14 02:49:12;;;;;;;9.40;5.40;;;;;;;5.89;82.44;100261.62;108699;1259;36806;-74
2023/01/14 02:51:43;;;;;;;7.70;5.00;;;;;;;5.87;82.63;100258.19;108651;1276;37114;-74
2023/01/14 02:54:16;;;;;;;8.40;5.30;;;;;;;5.84;82.60;100257.91;108672;1253;36154;-73
2023/01/14 02:56:50;;;;;;;9.20;5.30;;;;;;;5.80;82.64;100260.42;108659;1263;37087;-71
2023/01/14 02:59:48;;;;;;;7.40;5.30;;;;;;;5.75;82.78;100261.22;108674;1259;37176;-74
2023/01/14 03:02:48;;;;;;;8.50;4.90;;;;;;;5.70;82.80;100262.87;108662;1257;37346;-73
2023/01/14 03:05:30;;;;;;;9.70;5.50;;;;;;;5.66;82.90;100266.92;108679;1264;37070;-72
2023/01/14 03:08:04;;;;;;;9.00;5.40;;;;;;;5.66;83.10;100268.84;108527;1259;37071;-74
2023/01/14 03:10:39;;;;;;;7.20;5.30;;;;;;;5.63;83.42;100269.05;108642;1276;37170;-74
2023/01/14 03:13:14;;;;;;;8.70;5.60;;;;;;;5.61;83.20;100273.95;108680;1257;37140;-75
2023/01/14 03:15:52;;;;;;;7.50;5.00;;;;;;;5.58;83.50;100270.04;108722;1259;38666;-73
2023/01/14 03:18:28;;;;;;;9.40;5.70;;;;;;;5.56;83.60;100274.90;108664;1267;37396;-73
2023/01/14 03:21:02;;;;;;;8.50;5.30;;;;;;;5.58;83.64;100272.45;108772;1260;37096;-75
2023/01/14 03:23:47;;;;;;;8.00;5.50;;;;;;;5.59;83.60;100273.13;108792;1268;37074;-74
2023/01/14 03:26:18;;;;;;;8.60;5.00;;;;;;;5.56;83.63;100276.29;108467;1276;37292;-74
2023/01/14 03:28:50;;;;;;;8.10;5.30;;;;;;;5.51;83.48;100279.32;108686;1253;37119;-74
2023/01/14 03:31:25;;;;;;;8.20;5.20;;;;;;;5.47;83.48;100285.29;108640;1254;37281;-76
2023/01/14 03:33:57;;;;;;;10.40;5.50;;;;;;;5.44;83.45;100292.10;108572;1254;37194;-76
2023/01/14 03:36:33;;;;;;;8.40;5.30;;;;;;;5.40;83.63;100291.98;108664;1268;37368;-72
2023/01/14 03:39:08;;;;;;;8.90;5.40;;;;;;;5.35;83.78;100297.45;108692;1255;37032;-73
2023/01/14 03:44:38;;;;;;;8.80;5.00;;;;;;;5.25;83.88;100310.77;108681;1276;37092;-73
2023/01/14 03:47:10;;;;;;;8.10;5.00;;;;;;;5.21;83.82;100310.66;108698;1257;37078;-75
2023/01/14 03:49:40;;;;;;;10.50;5.50;;;;;;;5.19;84.05;100312.41;108482;1269;37463;-74
2023/01/14 03:52:14;;;;;;;7.60;5.10;;;;;;;5.15;83.85;100312.66;108644;1253;37192;-74
2023/01/14 03:54:51;;;;;;;7.70;5.10;;;;;;;5.12;83.94;100314.27;108602;1265;37099;-75
2023/01/14 03:57:27;;;;;;;7.10;4.40;;;;;;;5.08;83.87;100316.75;108681;1266;36976;-75
2023/01/14 04:00:14;;;;;;;7.80;4.90;;;;;;;5.05;83.86;100316.97;108704;1259;37480;-74
2023/01/14 04:02:45;;;;;;;8.10;5.00;;;;;;;5.01;84.08;100317.73;108665;1260;37061;-74
2023/01/14 04:05:16;;;;;;;7.70;4.80;;;;;;;4.99;83.93;100320.71;108565;1258;36244;-74
2023/01/14 04:07:48;;;;;;;11.00;5.00;;;;;;;4.93;84.08;100319.94;108613;1265;37089;-75
2023/01/14 04:10:22;;;;;;;7.30;4.80;;;;;;;4.89;84.13;100320.16;108664;1254;36976;-75
2023/01/14 04:15:43;;;;;;;6.60;4.30;;;;;;;4.84;84.24;100329.23;108634;1276;38869;-75
2023/01/14 04:18:14;;;;;;;8.40;5.00;;;;;;;4.82;84.20;100330.48;108614;1256;37173;-75
2023/01/14 04:20:46;;;;;;;7.60;4.90;;;;;;;4.79;84.19;100328.95;108667;1276;37030;-74
2023/01/14 04:23:23;;;;;;;7.00;4.30;;;;;;;4.75;84.51;100334.89;108686;1267;37086;-74
2023/01/14 04:26:03;;;;;;;7.50;4.20;;;;;;;4.72;84.45;100336.33;108506;1275;37096;-74
2023/01/14 04:28:47;;;;;;;8.30;4.40;;;;;;;4.71;84.51;100339.45;108426;1272;37237;-75
2023/01/14 04:31:18;;;;;;;7.90;4.40;;;;;;;4.72;84.71;100337.37;108640;1268;38116;-73
2023/01/14 04:33:51;;;;;;;8.60;4.60;;;;;;;4.72;84.83;100339.09;108508;1258;37110;-75
2023/01/14 04:36:25;;;;;;;8.30;4.20;;;;;;;4.73;84.79;100344.43;108631;1258;37127;-73
2023/01/14 04:38:56;;;;;;;6.20;4.00;;;;;;;4.72;84.71;100346.88;108612;1258;37308;-74
2023/01/14 04:44:16;;;;;;;7.80;4.90;;;;;;;4.75;84.93;100342.50;108610;1259;36793;-75
2023/01/14 04:46:47;;;;;;;7.30;3.90;;;;;;;4.79;84.78;100346.09;108663;1257;37012;-73
2023/01/14 04:49:25;;;;;;;8.00;3.90;;;;;;;4.82;84.84;100347.74;108654;1268;37128;-74
2023/01/14 04:51:56;;;;;;;7.50;4.10;;;;;;;4.84;85.06;100354.64;108580;1276;37416;-74
2023/01/14 04:54:27;;;;;;;8.40;4.20;;;;;;;4.90;84.78;100351.62;108456;1261;36381;-74
2023/01/14 04:57:01;;;;;;;5.90;4.10;;;;;;;4.96;84.90;100355.85;108620;1276;36016;-73
2023/01/14 04:59:35;;;;;;;6.60;4.50;;;;;;;5.00;85.12;100359.40;108280;1268;37572;-74
2023/01/14 05:02:07;;;;;;;6.70;4.00;;;;;;;5.04;84.63;100354.86;108636;1268;37050;-74
2023/01/14 05:04:38;;;;;;;8.30;3.50;;;;;;;5.09;84.60;100356.34;108668;1274;37094;-74
2023/01/14 05:07:09;;;;;;;6.80;3.50;;;;;;;5.11;84.27;100358.89;108617;1270;37041;-73
2023/01/14 05:09:41;;;;;;;6.50;3.70;;;;;;;5.16;84.38;100362.79;108621;1276;36953;-73
2023/01/14 05:12:13;;;;;;;5.90;3.40;;;;;;;5.19;84.18;100365.18;108596;1264;36983;-76
2023/01/14 05:14:48;;;;;;;6.80;3.80;;;;;;;5.21;84.24;100363.58;108653;1276;36330;-74
2023/01/14 05:17:20;;;;;;;8.60;3.80;;;;;;;5.24;84.10;100365.95;108422;1262;38898;-72
2023/01/14 05:19:53;;;;;;;5.60;3.30;;;;;;;5.28;84.04;100370.38;108616;1268;38542;-73
2023/01/14 05:22:25;;;;;;;7.10;3.50;;;;;;;5.33;83.74;100371.17;108633;1276;37074;-74
2023/01/14 05:24:56;;;;;;;8.30;3.80;;;;;;;5.36;83.60;100373.70;108621;1276;37296;-74
2023/01/14 05:27:27;;;;;;;6.00;3.70;;;;;;;5.37;83.24;100375.42;108603;1276;36368;-74
2023/01/14 05:30:02;;;;;;;7.50;3.80;;;;;;;5.39;83.53;100380.05;108624;1264;36227;-75
2023/01/14 05:32:35;;;;;;;10.00;3.70;;;;;;;5.41;83.48;100383.14;108619;1268;37193;-75
2023/01/14 05:35:20;;;;;;;6.40;3.10;;;;;;;5.42;83.23;100387.62;108603;1276;37114;-75
2023/01/14 05:37:52;;;;;;;6.00;3.20;;;;;;;5.42;82.97;100393.85;108619;1271;37508;-72
2023/01/14 05:40:26;;;;;;;5.80;3.10;;;;;;;5.41;83.21;100396.27;108610;1260;38332;-74
2023/01/14 05:45:51;;;;;;;7.20;3.30;;;;;;;5.39;83.28;100401.33;108641;1260;37033;-73
2023/01/14 05:48:24;;;;;;;4.70;3.30;;;;;;;5.36;83.04;100403.45;108653;1267;36969;-74
2023/01/14 05:51:01;;;;;;;6.60;3.00;;;;;;;5.34;83.12;100399.69;108662;1266;37290;-74
2023/01/14 05:53:36;;;;;;;5.70;3.10;;;;;;;5.32;82.92;100401.79;108583;1276;38141;-74
2023/01/14 05:56:09;;;;;;;5.90;3.40;;;;;;;5.28;83.05;100401.85;108572;1277;38472;-74
2023/01/14 05:58:44;;;;;;;6.40;3.80;;;;;;;5.26;83.18;100409.49;108585;1260;36961;-75
2023/01/14 06:06:59;;;;;;;8.00;3.30;;;;;;;5.17;83.48;100421.40;108610;1273;38389;-73
2023/01/14 06:09:31;;;;;;;9.30;3.10;;;;;;;5.21;83.71;100421.33;108663;1275;36129;-74
2023/01/14 06:12:06;;;;;;;5.00;3.20;;;;;;;5.25;83.71;100421.27;108626;1275;36982;-75
2023/01/14 06:14:37;;;;;;;5.90;2.80;;;;;;;5.27;83.67;100421.25;108528;1261;39032;-75
2023/01/14 06:17:34;;;;;;;7.20;2.90;;;;;;;5.29;83.63;100423.81;108604;1267;37101;-74
2023/01/14 06:20:06;;;;;;;4.00;2.40;;;;;;;5.33;83.63;100426.00;108506;1260;37240;-75
2023/01/14 06:22:41;;;;;;;4.70;2.80;;;;;;;5.36;83.55;100427.84;108615;1268;36983;-75
2023/01/14 06:25:12;;;;;;;8.70;3.80;;;;;;;5.42;83.65;100428.96;108612;1259;37647;-75
2023/01/14 06:27:43;;;;;;;5.60;3.00;;;;;;;5.48;83.62;100429.56;108619;1254;38399;-74
2023/01/14 06:30:16;;;;;;;7.00;2.80;;;;;;;5.52;83.48;100434.17;108608;1276;37617;-74
2023/01/14 06:32:47;;;;;;;5.70;2.90;;;;;;;5.54;83.19;100437.25;108624;1271;37831;-74
2023/01/14 06:35:22;;;;;;;4.00;2.50;;;;;;;5.56;83.21;100438.59;108664;1258;38279;-74
2023/01/14 06:37:55;;;;;;;5.10;3.00;;;;;;;5.58;83.08;100438.40;108597;1259;37106;-74
2023/01/14 06:40:29;;;;;;;5.80;2.80;;;;;;;5.61;82.95;100441.28;108632;1276;37171;-72
2023/01/14 06:43:01;;;;;;;5.90;3.10;;;;;;;5.62;82.84;100441.80;108632;1259;36962;-74
2023/01/14 06:45:32;;;;;;;6.40;2.80;;;;;;;5.64;82.74;100445.73;108622;1267;37318;-74
2023/01/14 06:48:03;;;;;;;7.40;2.60;;;;;;;5.66;82.59;100441.54;108581;1268;37093;-74
2023/01/14 06:50:36;;;;;;;6.20;2.60;;;;;;;5.69;82.78;100442.17;108586;1262;36063;-74
2023/01/14 06:53:07;;;;;;;6.50;3.20;;;;;;;5.74;82.71;100443.16;108590;1267;37063;-74
2023/01/14 06:55:38;;;;;;;6.70;3.00;;;;;;;5.76;82.59;100445.71;108631;1267;37072;-75
2023/01/14 06:58:22;;;;;;;5.50;2.90;;;;;;;5.77;82.37;100446.39;108630;1276;37316;-75
2023/01/14 07:01:03;;;;;;;6.10;2.80;;;;;;;5.76;82.12;100448.30;108550;1260;36003;-75
2023/01/14 07:03:36;;;;;;;6.00;2.60;;;;;;;5.78;82.34;100452.10;108604;1258;37017;-74
2023/01/14 07:06:11;;;;;;;8.40;2.70;;;;;;;5.82;82.22;100454.79;108601;1268;37658;-74
2023/01/14 07:08:41;;;;;;;4.90;2.30;;;;;;;5.85;82.25;100457.33;108594;1258;36948;-74
2023/01/14 07:11:12;;;;;;;5.10;2.80;;;;;;;5.88;82.28;100459.88;107995;1259;909127;-74
2023/01/14 07:13:44;;;;;;;5.30;2.40;;;;;;;5.89;81.86;100461.40;108580;1259;37094;-75
2023/01/14 07:16:16;;;;;;;6.20;2.50;;;;;;;5.90;81.98;100465.36;108420;1272;37627;-74
2023/01/14 07:18:49;;;;;;;10.90;2.90;;;;;;;5.92;81.93;100466.77;108506;1259;37919;-73
2023/01/14 07:21:23;;;;;;;6.10;2.40;;;;;;;5.93;81.81;100467.44;108648;1269;38102;-75
2023/01/14 07:23:55;;;;;;;3.30;2.10;;;;;;;5.97;81.73;100471.19;108656;1268;37215;-73
2023/01/14 07:26:26;;;;;;;4.10;2.30;;;;;;;6.00;81.76;100469.92;108463;1260;37342;-74
2023/01/14 07:28:57;;;;;;;6.20;2.50;;;;;;;6.04;81.60;100474.34;108591;1273;37185;-73
2023/01/14 07:31:29;;;;;;;4.70;2.20;;;;;;;6.07;81.74;100482.96;108697;1269;38343;-74
2023/01/14 07:34:01;;;;;;;5.10;2.30;;;;;;;6.10;81.62;100485.14;108638;1268;38618;-75
2023/01/14 07:36:32;;;;;;;4.70;2.10;;;;;;;6.12;81.57;100491.69;108610;1272;36472;-74
2023/01/14 07:39:03;;;;;;;5.00;2.10;;;;;;;6.16;81.50;100493.17;108060;1269;687407;-74
2023/01/14 07:41:34;;;;;;;7.00;2.70;;;;;;;6.24;81.53;100491.14;108549;1262;37280;-73
2023/01/14 07:44:05;;;;;;;3.90;2.10;;;;;;;6.29;81.45;100495.36;108552;1258;37217;-74
2023/01/14 07:46:36;;;;;;;5.10;2.70;;;;;;;6.33;81.44;100497.20;108490;1276;36968;-74
2023/01/14 07:49:14;;;;;;;5.40;2.90;;;;;;;6.36;81.00;100501.48;108484;1254;36979;-72
2023/01/14 07:51:47;;;;;;;5.10;2.70;;;;;;;6.39;81.09;100505.40;108590;1269;37005;-72
2023/01/14 07:54:23;;;;;;;6.30;2.30;;;;;;;6.41;80.68;100505.36;108586;1253;36957;-73
2023/01/14 07:56:54;;;;;;;4.10;2.30;;;;;;;6.44;80.69;100512.94;108488;1254;172718;-73
2023/01/14 07:59:25;;;;;;;6.20;2.50;;;;;;;6.45;80.42;100510.14;108558;1258;36165;-74
2023/01/14 08:01:57;;;;;;;5.40;2.40;;;;;;;6.44;80.14;100513.47;108614;1254;38388;-74
2023/01/14 08:04:28;;;;;;;7.00;3.00;;;;;;;6.42;80.22;100515.40;108581;1257;37728;-73
2023/01/14 08:07:01;;;;;;;5.10;2.70;;;;;;;6.40;80.18;100514.75;108586;1276;37657;-73
2023/01/14 08:09:32;;;;;;;4.00;2.30;;;;;;;6.42;79.98;100517.84;108646;1258;37237;-74
2023/01/14 08:12:04;;;;;;;5.80;2.60;;;;;;;6.48;80.25;100518.21;108399;1274;37832;-73
2023/01/14 08:14:35;;;;;;;5.50;2.90;;;;;;;6.56;80.14;100523.45;108510;1276;174865;-73
2023/01/14 08:17:06;;;;;;;5.30;2.50;;;;;;;6.64;80.14;100524.34;108615;1276;37137;-74
2023/01/14 08:19:39;;;;;;;6.30;3.00;;;;;;;6.72;80.00;100527.65;108644;1267;37096;-74
2023/01/14 08:22:16;;;;;;;4.50;2.60;;;;;;;6.83;79.96;100526.91;108600;1257;37211;-74
2023/01/14 08:24:50;;;;;;;6.10;2.50;;;;;;;6.94;79.87;100529.30;108626;1270;37007;-74
2023/01/14 08:27:24;;;;;;;6.10;2.60;;;;;;;7.08;79.71;100533.86;108569;1268;36089;-74
2023/01/14 08:29:55;;;;;;;5.40;2.40;;;;;;;7.22;79.43;100539.79;108623;1254;36545;-75
2023/01/14 08:32:27;;;;;;;6.10;2.50;;;;;;;7.37;79.49;100544.16;108602;1258;38491;-75
2023/01/14 08:34:58;;;;;;;4.50;2.60;;;;;;;7.53;79.08;100550.77;108590;1274;37313;-74
2023/01/14 08:37:30;;;;;;;5.80;2.80;;;;;;;7.62;78.54;100551.40;108616;1258;37178;-74
2023/01/14 08:40:05;;;;;;;4.90;2.90;;;;;;;7.64;77.72;100556.05;108558;1276;37147;-74
2023/01/14 08:42:36;;;;;;;3.90;2.20;;;;;;;7.62;77.61;100556.42;108577;1271;36084;-75
2023/01/14 08:45:14;;;;;;;5.30;2.60;;;;;;;7.62;77.51;100556.27;108620;1257;36589;-74
2023/01/14 08:47:50;;;;;;;5.00;2.30;;;;;;;7.59;76.97;100558.94;108385;1276;37006;-74
2023/01/14 08:50:22;;;;;;;5.00;2.70;;;;;;;7.59;77.06;100562.42;108624;1269;36340;-74
2023/01/14 08:52:57;;;;;;;5.30;2.40;;;;;;;7.60;76.90;100567.44;108564;1257;36288;-74
2023/01/14 08:55:29;;;;;;;4.70;2.30;;;;;;;7.64;76.94;100570.65;108624;1276;37101;-74
2023/01/14 08:58:00;;;;;;;5.50;2.90;;;;;;;7.69;76.93;100576.09;108598;1276;37140;-75
2023/01/14 09:00:33;;;;;;;6.60;2.70;;;;;;;7.73;76.80;100580.16;108562;1259;37534;-73
2023/01/14 09:03:08;;;;;;;4.00;2.20;;;;;;;7.75;76.24;100582.89;108580;1276;37286;-75
2023/01/14 09:05:39;;;;;;;5.70;3.20;;;;;;;7.72;75.62;100579.64;108620;1269;37147;-75
2023/01/14 09:17:10;;;;;;;4.90;2.30;;;;;;;7.86;75.81;100591.48;108560;1268;37544;-72
2023/01/14 09:19:51;;;;;;;4.20;2.30;;;;;;;7.91;76.04;100591.36;108434;1256;37155;-74
2023/01/14 09:22:38;;;;;;;4.70;2.40;;;;;;;7.99;76.36;100591.52;108523;1267;174895;-74
2023/01/14 09:25:15;;;;;;;4.10;2.40;;;;;;;8.08;76.36;100588.72;108666;1257;37303;-76
2023/01/14 09:27:46;;;;;;;5.30;2.40;;;;;;;8.15;76.18;100588.89;108586;1276;37136;-74
2023/01/14 09:30:18;;;;;;;5.30;2.50;;;;;;;8.22;76.09;100594.95;108629;1258;37570;-73
2023/01/14 09:32:50;;;;;;;5.20;2.20;;;;;;;8.29;76.01;100592.36;108563;1276;37113;-74
2023/01/14 09:35:21;;;;;;;4.10;2.60;;;;;;;8.35;75.37;100598.13;108424;1271;37058;-75
2023/01/14 09:37:57;;;;;;;4.80;2.40;;;;;;;8.40;75.04;100599.05;108567;1272;36611;-74
2023/01/14 09:40:29;;;;;;;4.00;2.10;;;;;;;8.42;75.03;100597.27;108605;1257;37574;-75
2023/01/14 09:43:04;;;;;;;4.90;2.60;;;;;;;8.47;75.39;100597.67;108639;1268;36133;-74
2023/01/14 09:45:38;;;;;;;4.70;2.20;;;;;;;8.52;75.44;100601.36;108608;1276;37313;-73
2023/01/14 09:48:21;;;;;;;6.30;2.50;;;;;;;8.53;74.84;100604.98;108660;1276;37184;-74
2023/01/14 09:50:59;;;;;;;3.50;2.10;;;;;;;8.46;74.68;100600.13;108490;1263;174771;-73
2023/01/14 09:53:53;;;;;;;7.10;3.00;;;;;;;8.38;74.39;100603.29;108545;1276;187550;-73
2023/01/14 09:56:31;;;;;;;4.90;2.50;;;;;;;8.24;74.02;100605.17;108684;1276;37445;-74
2023/01/14 09:59:10;;;;;;;7.30;3.00;;;;;;;8.14;73.98;100599.17;108462;1257;37558;-74
2023/01/14 10:01:48;;;;;;;5.10;2.70;;;;;;;8.07;74.23;100597.23;108575;1276;37191;-73
2023/01/14 10:04:40;;;;;;;5.70;2.40;;;;;;;8.26;75.22;100591.23;108666;1276;38297;-72
2023/01/14 10:07:13;;;;;;;5.40;2.60;;;;;;;8.91;75.29;100587.61;108660;1276;37904;-73
2023/01/14 10:09:51;;;;;;;6.50;2.90;;;;;;;9.40;74.85;100581.02;108663;1266;37411;-73
2023/01/14 10:12:26;;;;;;;8.70;3.10;;;;;;;9.53;72.87;100585.65;108665;1258;36973;-74
2023/01/14 10:15:16;;;;;;;6.60;3.10;;;;;;;9.45;71.85;100590.79;108697;1257;36522;-73
2023/01/14 10:17:54;;;;;;;5.60;3.10;;;;;;;9.28;71.47;100587.44;108684;1257;37151;-73
2023/01/14 10:20:30;;;;;;;7.40;3.10;;;;;;;9.18;71.51;100590.88;108686;1257;37410;-73
2023/01/14 10:23:05;;;;;;;6.90;3.20;;;;;;;9.02;70.74;100589.59;108694;1257;37144;-73
2023/01/14 10:25:38;;;;;;;6.00;3.20;;;;;;;8.88;71.57;100591.89;108005;1257;908256;-73
2023/01/14 10:28:13;;;;;;;7.20;3.10;;;;;;;8.82;71.91;100597.27;108672;1267;36050;-73
2023/01/14 10:30:44;;;;;;;7.20;3.40;;;;;;;8.80;72.33;100596.29;108684;1254;37105;-73
2023/01/14 10:33:17;;;;;;;9.40;4.00;;;;;;;8.89;72.85;100595.66;108650;1276;37294;-73
2023/01/14 10:35:52;;;;;;;5.70;3.80;;;;;;;9.11;72.98;100589.84;108682;1253;37071;-74
2023/01/14 10:38:29;;;;;;;6.10;3.60;;;;;;;9.26;73.30;100590.10;108675;1270;36978;-74
2023/01/14 10:41:04;;;;;;;5.10;3.20;;;;;;;9.34;72.28;100587.80;108705;1276;37134;-74
2023/01/14 10:43:42;;;;;;;8.10;3.30;;;;;;;9.29;71.26;100583.08;108634;1267;38964;-74
2023/01/14 10:46:20;;;;;;;8.50;3.10;;;;;;;9.22;71.42;100584.83;108663;1257;36721;-80
2023/01/14 10:48:58;;;;;;;7.40;3.00;;;;;;;9.18;71.31;100582.52;108636;1276;36996;-73
2023/01/14 10:51:36;;;;;;;9.10;3.10;;;;;;;9.15;71.37;100582.95;108657;1276;38941;-72
2023/01/14 10:54:18;;;;;;;6.20;3.00;;;;;;;9.12;71.12;100582.33;108494;1276;38231;-74
2023/01/14 10:56:55;;;;;;;6.00;2.60;;;;;;;9.09;71.31;100584.50;108660;1257;36484;-73
2023/01/14 10:59:46;;;;;;;6.40;3.30;;;;;;;9.08;71.41;100577.40;108624;1276;37237;-71
2023/01/14 11:02:34;;;;;;;7.90;3.10;;;;;;;9.10;71.59;100578.22;108493;1276;38501;-71
2023/01/14 11:05:06;;;;;;;186.40;26.60;;;;;;;9.13;71.46;100582.83;108657;1267;37479;-78
2023/01/14 11:07:41;;;;;;;15.40;3.80;;;;;;;9.18;71.74;100583.55;108507;1256;36122;-72
2023/01/14 11:10:26;;;;;;;6.30;3.00;;;;;;;9.25;71.54;100584.73;108646;1265;38740;-73
2023/01/14 11:13:25;;;;;;;9.80;3.50;;;;;;;9.28;71.11;100586.55;108449;1254;37345;-73
2023/01/14 11:15:55;;;;;;;;;;;;;;;9.27;71.23;100582.08;108701;1267;37115;-72
2023/01/14 11:18:30;;;;;;;5.30;2.80;;;;;;;9.21;70.38;100583.48;108653;1276;37052;-71
2023/01/14 11:21:10;;;;;;;11.60;3.50;;;;;;;9.14;70.68;100582.28;108029;1265;905729;-73
2023/01/14 11:23:59;;;;;;;6.40;2.50;;;;;;;9.08;70.67;100576.36;108612;1257;36940;-74
2023/01/14 11:26:36;;;;;;;6.20;2.80;;;;;;;9.04;70.91;100573.88;108438;1277;37462;-75
2023/01/14 11:29:24;;;;;;;5.00;2.90;;;;;;;9.01;71.16;100569.60;108596;1254;38602;-74
2023/01/14 11:32:08;;;;;;;9.70;2.60;;;;;;;9.00;71.22;100565.60;108618;1254;38495;-73
2023/01/14 11:34:48;;;;;;;4.90;2.50;;;;;;;9.01;71.41;100570.45;108624;1258;37316;-73
2023/01/14 11:37:21;;;;;;;4.70;2.30;;;;;;;9.01;70.86;100570.98;108645;1268;37262;-71
2023/01/14 11:39:55;;;;;;;5.70;2.10;;;;;;;9.00;70.37;100570.66;108627;1276;37157;-74
2023/01/14 11:42:36;;;;;;;5.00;2.30;;;;;;;8.99;70.46;100572.25;108650;1258;37060;-73
2023/01/14 11:45:17;;;;;;;5.40;2.40;;;;;;;9.00;70.78;100574.33;108637;1276;37070;-73
2023/01/14 11:47:52;;;;;;;4.70;2.50;;;;;;;9.04;70.76;100572.83;108673;1257;37649;-72
2023/01/14 11:50:26;;;;;;;6.90;2.70;;;;;;;9.08;70.79;100569.60;108660;1257;37608;-74
2023/01/14 11:53:03;;;;;;;6.70;3.20;;;;;;;9.09;70.60;100566.08;108620;1257;37838;-73
2023/01/14 11:55:40;;;;;;;8.10;3.10;;;;;;;9.09;70.39;100569.39;108675;1276;37081;-71
2023/01/14 11:58:17;;;;;;;8.00;3.20;;;;;;;9.06;70.23;100566.50;108627;1259;37136;-74
2023/01/14 12:00:51;;;;;;;5.20;2.70;;;;;;;9.04;70.25;100564.45;108656;1266;37181;-73
2023/01/14 12:03:34;;;;;;;6.60;3.10;;;;;;;9.02;70.20;100568.35;108676;1268;37138;-73
2023/01/14 12:06:11;;;;;;;9.00;2.90;;;;;;;9.02;70.64;100571.83;108642;1276;37129;-73
2023/01/14 12:08:45;;;;;;;6.40;2.60;;;;;;;9.06;70.84;100565.62;108642;1259;35992;-73
2023/01/14 12:11:20;;;;;;;6.30;2.70;;;;;;;9.12;70.62;100562.34;108508;1260;37157;-73
2023/01/14 12:16:50;;;;;;;5.10;2.70;;;;;;;9.13;70.24;100556.73;108550;1276;172574;-73
2023/01/14 12:19:28;;;;;;;8.70;3.30;;;;;;;9.11;70.33;100550.85;108655;1257;36093;-73
2023/01/14 12:22:06;;;;;;;8.00;3.40;;;;;;;9.12;70.33;100545.78;108541;1261;172584;-72
2023/01/14 12:24:51;;;;;;;7.50;3.50;;;;;;;9.12;70.38;100545.79;108504;1260;37346;-74
2023/01/14 12:30:47;;;;;;;6.80;2.50;;;;;;;9.03;69.24;100540.83;108675;1276;37210;-74
2023/01/14 12:33:27;;;;;;;6.70;2.90;;;;;;;8.96;69.75;100539.63;108604;1257;37202;-73
2023/01/14 12:36:05;;;;;;;6.30;2.60;;;;;;;8.92;69.66;100544.10;108603;1253;36974;-73
2023/01/14 12:47:22;;;;;;;5.70;2.70;;;;;;;8.88;70.06;100551.17;108648;1254;37086;-72